createdAt,value
2024-01-31T00:01:25.420Z,28.00
2024-01-31T00:04:28.678Z,29.25
2024-01-31T00:07:31.904Z,29.60
2024-01-31T00:10:35.014Z,31.60
2024-01-31T00:13:38.223Z,29.60
2024-01-31T00:16:43.561Z,31.00
2024-01-31T00:19:46.746Z,30.40
2024-01-31T00:22:49.885Z,28.20
2024-01-31T00:25:53.455Z,29.80
2024-01-31T00:28:56.661Z,31.00
2024-01-31T00:32:02.064Z,33.00
2024-01-31T00:35:05.661Z,30.00
2024-01-31T00:38:08.865Z,32.00
2024-01-31T00:41:11.941Z,29.40
2024-01-31T00:44:15.169Z,28.60
2024-01-31T00:47:19.807Z,29.20
2024-01-31T00:50:22.971Z,30.00
2024-01-31T00:53:26.072Z,28.75
2024-01-31T00:56:29.124Z,28.75
2024-01-31T00:59:32.193Z,30.00
2024-01-31T01:02:37.452Z,27.00
2024-01-31T01:05:40.546Z,29.20
2024-01-31T01:08:43.615Z,28.00
2024-01-31T01:11:46.705Z,25.00
2024-01-31T01:14:49.815Z,28.25
2024-01-31T01:17:54.532Z,27.00
2024-01-31T01:20:57.709Z,27.00
2024-01-31T01:24:00.816Z,27.00
2024-01-31T01:27:04.150Z,27.00
2024-01-31T01:30:08.501Z,27.00
2024-01-31T01:33:13.020Z,27.00
2024-01-31T01:36:17.186Z,25.20
2024-01-31T01:39:20.301Z,27.00
2024-01-31T01:42:23.336Z,26.00
2024-01-31T01:45:27.878Z,27.00
2024-01-31T01:48:32.345Z,26.00
2024-01-31T01:51:36.215Z,27.00
2024-01-31T01:54:40.010Z,26.00
2024-01-31T01:57:43.126Z,24.00
2024-01-31T02:00:48.552Z,24.00
2024-01-31T02:07:29.929Z,24.00
2024-01-31T02:10:33.133Z,27.60
2024-01-31T02:13:36.290Z,24.00
2024-01-31T02:16:39.567Z,24.00
2024-01-31T02:19:42.916Z,25.00
2024-01-31T02:22:48.902Z,26.00
2024-01-31T02:25:52.526Z,26.00
2024-01-31T02:28:55.597Z,26.00
2024-01-31T02:31:58.731Z,24.00
2024-01-31T02:35:02.076Z,25.00
2024-01-31T02:38:06.871Z,26.00
2024-01-31T02:41:10.052Z,28.00
2024-01-31T02:44:13.093Z,24.40
2024-01-31T02:47:16.172Z,27.00
2024-01-31T02:50:19.482Z,26.00
2024-01-31T02:53:23.957Z,24.40
2024-01-31T02:56:27.080Z,25.80
2024-01-31T02:59:30.214Z,26.60
2024-01-31T03:02:33.312Z,24.00
2024-01-31T03:05:36.491Z,25.00
2024-01-31T03:08:40.963Z,23.00
2024-01-31T03:11:44.009Z,25.00
2024-01-31T03:14:47.298Z,27.00
2024-01-31T03:17:50.410Z,26.00
2024-01-31T03:20:55.863Z,27.00
2024-01-31T03:24:00.355Z,27.00
2024-01-31T03:27:04.060Z,27.00
2024-01-31T03:30:10.581Z,25.40
2024-01-31T03:33:13.909Z,26.20
2024-01-31T03:36:17.195Z,26.00
2024-01-31T03:39:21.641Z,25.00
2024-01-31T03:42:24.776Z,24.00
2024-01-31T03:45:28.845Z,25.00
2024-01-31T03:48:32.058Z,24.00
2024-01-31T03:51:35.255Z,24.00
2024-01-31T03:54:39.675Z,26.25
2024-01-31T03:57:42.766Z,26.00
2024-01-31T04:00:45.900Z,27.00
2024-01-31T04:03:49.046Z,26.00
2024-01-31T04:06:52.148Z,24.00
2024-01-31T04:09:56.664Z,24.00
2024-01-31T04:12:59.761Z,24.00
2024-01-31T04:16:02.915Z,25.80
2024-01-31T04:19:06.999Z,25.00
2024-01-31T04:22:10.134Z,27.00
2024-01-31T04:25:14.611Z,24.80
2024-01-31T04:36:20.134Z,24.20
2024-01-31T04:39:23.837Z,28.00
2024-01-31T04:42:28.902Z,27.00
2024-01-31T04:49:48.456Z,26.00
2024-01-31T04:52:51.906Z,26.00
2024-01-31T04:55:55.830Z,27.00
2024-01-31T04:59:00.705Z,25.20
2024-01-31T05:02:12.236Z,27.00
2024-01-31T05:05:15.968Z,26.00
2024-01-31T05:08:19.460Z,25.40
2024-01-31T05:11:22.732Z,24.00
2024-01-31T05:14:27.368Z,25.00
2024-01-31T05:17:30.695Z,23.00
2024-01-31T05:20:34.023Z,24.00
2024-01-31T05:23:37.264Z,23.00
2024-01-31T05:26:40.472Z,23.00
2024-01-31T05:29:45.106Z,24.00
2024-01-31T05:32:48.396Z,24.50
2024-01-31T05:35:51.681Z,19.60
2024-01-31T05:38:54.918Z,23.40
2024-01-31T05:41:58.253Z,23.00
2024-01-31T05:45:02.916Z,20.00
2024-01-31T05:48:07.444Z,25.80
2024-01-31T05:51:10.844Z,26.00
2024-01-31T05:54:14.904Z,24.80
2024-01-31T05:57:18.203Z,24.75
2024-01-31T06:00:23.038Z,26.40
2024-01-31T06:03:29.414Z,25.00
2024-01-31T06:06:32.872Z,26.00
2024-01-31T06:09:36.218Z,26.00
2024-01-31T06:12:39.535Z,27.00
2024-01-31T06:15:44.157Z,27.00
2024-01-31T06:18:47.389Z,28.00
2024-01-31T06:21:50.678Z,27.00
2024-01-31T06:24:53.904Z,28.00
2024-01-31T06:27:58.097Z,25.80
2024-01-31T06:31:14.738Z,26.40
2024-01-31T06:34:18.954Z,27.00
2024-01-31T06:37:22.301Z,27.50
2024-01-31T06:40:25.889Z,22.80
2024-01-31T06:43:29.216Z,23.00
2024-01-31T06:46:34.009Z,26.00
2024-01-31T06:49:37.338Z,28.00
2024-01-31T06:52:40.741Z,27.00
2024-01-31T06:55:44.140Z,27.60
2024-01-31T06:58:47.820Z,25.67
2024-01-31T07:01:52.524Z,25.50
2024-01-31T07:04:55.801Z,22.40
2024-01-31T07:07:59.542Z,25.33
2024-01-31T07:11:02.793Z,26.00
2024-01-31T07:14:06.117Z,26.75
2024-01-31T07:17:11.199Z,26.60
2024-01-31T07:20:15.134Z,25.00
2024-01-31T07:23:18.430Z,25.60
2024-01-31T07:26:25.295Z,28.00
2024-01-31T07:29:28.669Z,28.60
2024-01-31T07:32:35.486Z,28.00
2024-01-31T07:35:38.831Z,29.00
2024-01-31T07:38:44.436Z,27.40
2024-01-31T07:41:47.924Z,29.00
2024-01-31T07:44:51.507Z,27.00
2024-01-31T07:47:57.650Z,28.00
2024-01-31T07:51:03.960Z,29.33
2024-01-31T07:54:07.263Z,29.33
2024-01-31T07:57:10.821Z,29.00
2024-01-31T08:00:14.849Z,28.00
2024-01-31T08:03:22.668Z,31.00
2024-01-31T08:06:26.138Z,29.00
2024-01-31T08:09:30.043Z,29.00
2024-01-31T08:12:33.332Z,29.00
2024-01-31T08:15:55.433Z,28.00
2024-01-31T08:19:18.880Z,28.00
2024-01-31T08:22:22.229Z,27.40
2024-01-31T08:25:25.865Z,28.20
2024-01-31T08:28:29.313Z,30.00
2024-01-31T08:31:32.633Z,28.00
2024-01-31T08:34:37.483Z,29.00
2024-01-31T08:37:41.186Z,28.60
2024-01-31T08:40:44.738Z,28.20
2024-01-31T08:43:48.344Z,31.00
2024-01-31T08:47:03.651Z,31.00
2024-01-31T08:50:17.999Z,28.00
2024-01-31T08:53:21.291Z,30.00
2024-01-31T08:56:24.859Z,29.50
2024-01-31T08:59:28.106Z,30.00
2024-01-31T09:02:31.342Z,30.00
2024-01-31T09:05:36.017Z,28.00
2024-01-31T09:08:39.441Z,29.40
2024-01-31T09:11:42.643Z,30.00
2024-01-31T09:14:45.843Z,28.25
2024-01-31T09:17:49.285Z,29.00
2024-01-31T09:20:54.119Z,29.40
2024-01-31T09:23:57.350Z,27.40
2024-01-31T09:27:00.607Z,28.00
2024-01-31T09:30:04.864Z,29.00
2024-01-31T09:33:08.166Z,28.25
2024-01-31T09:36:13.326Z,28.60
2024-01-31T09:39:16.715Z,30.00
2024-01-31T09:42:19.972Z,30.50
2024-01-31T09:45:24.125Z,28.00
2024-01-31T09:48:28.992Z,29.00
2024-01-31T09:51:34.490Z,29.50
2024-01-31T09:54:37.786Z,30.00
2024-01-31T09:57:41.511Z,29.00
2024-01-31T10:00:46.297Z,28.00
2024-01-31T10:03:50.212Z,28.00
2024-01-31T10:06:55.180Z,28.00
2024-01-31T10:09:58.879Z,29.00
2024-01-31T10:13:02.098Z,29.00
2024-01-31T10:16:05.829Z,28.60
2024-01-31T10:19:09.297Z,29.00
2024-01-31T10:22:13.942Z,29.00
2024-01-31T10:25:19.576Z,27.00
2024-01-31T10:28:24.117Z,28.00
2024-01-31T10:31:27.803Z,27.40
2024-01-31T10:34:39.604Z,28.50
2024-01-31T10:37:56.897Z,28.80
2024-01-31T10:41:03.107Z,30.00
2024-01-31T10:44:09.977Z,29.00
2024-01-31T10:47:13.069Z,28.60
2024-01-31T10:50:17.244Z,29.00
2024-01-31T10:53:23.640Z,29.00
2024-01-31T10:56:27.829Z,28.00
2024-01-31T10:59:37.230Z,28.75
2024-01-31T11:02:40.792Z,29.60
2024-01-31T11:05:44.733Z,30.75
2024-01-31T11:08:49.856Z,29.00
2024-01-31T11:12:03.471Z,30.40
2024-01-31T11:15:07.734Z,28.60
2024-01-31T11:18:12.428Z,29.75
2024-01-31T11:21:15.893Z,29.00
2024-01-31T11:24:20.684Z,30.00
2024-01-31T11:27:24.391Z,28.00
2024-01-31T11:30:27.783Z,28.00
2024-01-31T11:33:31.862Z,28.60
2024-01-31T11:36:35.051Z,28.00
2024-01-31T11:39:39.984Z,28.00
2024-01-31T11:42:43.167Z,27.20
2024-01-31T11:45:49.065Z,28.00
2024-01-31T11:48:53.381Z,27.00
2024-01-31T11:51:56.508Z,28.00
2024-01-31T11:55:00.951Z,28.00
2024-01-31T11:58:04.194Z,29.80
2024-01-31T12:01:07.455Z,27.80
2024-01-31T12:04:10.514Z,30.75
2024-01-31T12:07:16.040Z,29.00
2024-01-31T12:10:20.808Z,29.80
2024-01-31T12:13:24.173Z,28.00
2024-01-31T12:16:27.307Z,29.40
2024-01-31T12:19:31.229Z,31.00
2024-01-31T12:22:34.736Z,30.00
2024-01-31T12:25:39.195Z,30.00
2024-01-31T12:28:42.816Z,29.00
2024-01-31T12:31:46.829Z,29.75
2024-01-31T12:34:49.973Z,30.00
2024-01-31T12:37:53.221Z,30.25
2024-01-31T12:40:57.709Z,30.20
2024-01-31T12:44:01.241Z,31.00
2024-01-31T12:47:06.864Z,31.20
2024-01-31T12:50:10.204Z,31.00
2024-01-31T12:53:13.372Z,31.50
2024-01-31T12:56:17.905Z,32.00
2024-01-31T12:59:23.707Z,30.60
2024-01-31T13:02:28.394Z,31.25
2024-01-31T13:05:31.726Z,29.00
2024-01-31T13:08:36.494Z,29.60
2024-01-31T13:11:41.549Z,31.00
2024-01-31T13:14:44.963Z,30.00
2024-01-31T13:17:48.937Z,30.00
2024-01-31T13:20:52.161Z,29.00
2024-01-31T13:23:57.174Z,29.20
2024-01-31T13:27:01.750Z,29.75
2024-01-31T13:33:09.348Z,29.00
2024-01-31T13:36:13.248Z,28.40
2024-01-31T13:39:16.971Z,29.75
2024-01-31T13:42:21.430Z,30.00
2024-01-31T13:45:24.583Z,29.80
2024-01-31T13:48:27.824Z,31.00
2024-01-31T13:51:30.960Z,29.00
2024-01-31T13:54:34.035Z,28.60
2024-01-31T13:57:38.492Z,29.00
2024-01-31T14:00:42.809Z,30.20
2024-01-31T14:03:46.131Z,30.00
2024-01-31T14:06:49.764Z,29.00
2024-01-31T14:09:52.872Z,31.00
2024-01-31T14:12:57.431Z,31.40
2024-01-31T14:16:00.687Z,31.00
2024-01-31T14:19:03.876Z,31.60
2024-01-31T14:22:16.401Z,31.25
2024-01-31T14:25:23.667Z,31.00
2024-01-31T14:28:28.197Z,31.60
2024-01-31T14:31:31.495Z,32.00
2024-01-31T14:34:34.691Z,32.00
2024-01-31T14:37:37.842Z,32.20
2024-01-31T14:40:40.904Z,34.00
2024-01-31T14:43:45.376Z,34.00
2024-01-31T14:46:48.582Z,33.00
2024-01-31T14:49:51.725Z,34.00
2024-01-31T14:52:54.835Z,33.60
2024-01-31T14:55:58.168Z,34.00
2024-01-31T14:59:02.652Z,34.00
2024-01-31T15:02:07.607Z,33.80
2024-01-31T15:05:10.838Z,33.00
2024-01-31T15:08:14.092Z,33.25
2024-01-31T15:11:17.199Z,34.00
2024-01-31T15:14:21.873Z,33.00
2024-01-31T15:17:25.231Z,33.75
2024-01-31T15:20:30.304Z,34.00
2024-01-31T15:23:33.550Z,34.00
2024-01-31T15:26:36.821Z,33.00
2024-01-31T15:29:41.395Z,33.50
2024-01-31T15:32:44.853Z,34.00
2024-01-31T15:35:48.029Z,34.00
2024-01-31T15:38:51.483Z,34.00
2024-01-31T15:41:54.611Z,35.00
2024-01-31T15:44:59.117Z,34.00
2024-01-31T15:48:02.336Z,33.60
2024-01-31T15:51:06.051Z,34.00
2024-01-31T15:54:09.551Z,33.80
2024-01-31T15:57:12.640Z,33.60
2024-01-31T16:00:18.334Z,34.50
2024-01-31T16:03:22.115Z,34.00
2024-01-31T16:06:25.351Z,34.80
2024-01-31T16:09:29.640Z,34.80
2024-01-31T16:12:32.813Z,35.00
2024-01-31T16:15:37.434Z,33.80
2024-01-31T16:18:40.649Z,37.00
2024-01-31T16:21:47.123Z,35.00
2024-01-31T16:24:50.928Z,35.40
2024-01-31T16:27:54.030Z,35.00
2024-01-31T16:30:58.486Z,36.80
2024-01-31T16:34:01.985Z,36.33
2024-01-31T16:37:05.453Z,35.60
2024-01-31T16:40:09.784Z,36.60
2024-01-31T16:43:13.101Z,34.50
2024-01-31T16:46:17.785Z,36.00
2024-01-31T16:49:21.009Z,35.40
2024-01-31T16:52:24.239Z,37.00
2024-01-31T16:55:27.291Z,37.00
2024-01-31T16:58:30.439Z,36.00
2024-01-31T17:01:35.092Z,37.40
2024-01-31T17:04:38.202Z,41.00
2024-01-31T17:07:41.308Z,36.60
2024-01-31T17:10:44.757Z,38.20
2024-01-31T17:13:47.868Z,37.00
2024-01-31T17:16:54.724Z,35.60
2024-01-31T17:19:57.855Z,37.00
2024-01-31T17:23:02.604Z,36.40
2024-01-31T17:26:05.890Z,37.25
2024-01-31T17:29:08.923Z,38.80
2024-01-31T17:32:13.346Z,36.00
2024-01-31T17:35:16.712Z,37.00
2024-01-31T17:38:19.876Z,39.40
2024-01-31T17:41:22.968Z,37.80
2024-01-31T17:44:26.060Z,35.00
2024-01-31T17:47:41.290Z,37.00
2024-01-31T17:50:46.480Z,38.80
2024-01-31T17:53:50.006Z,39.50
2024-01-31T17:56:56.047Z,39.00
2024-01-31T17:59:59.909Z,38.50
2024-01-31T18:03:04.868Z,37.75
2024-01-31T18:06:08.380Z,37.00
2024-01-31T18:09:12.289Z,37.00
2024-01-31T18:12:21.940Z,39.00
2024-01-31T18:15:31.104Z,36.60
2024-01-31T18:18:35.637Z,37.80
2024-01-31T18:21:40.264Z,36.25
2024-01-31T18:24:43.355Z,36.00
2024-01-31T18:27:46.750Z,37.00
2024-01-31T18:30:50.184Z,35.80
2024-01-31T18:33:56.562Z,37.00
2024-01-31T18:37:00.191Z,36.60
2024-01-31T18:40:03.304Z,37.00
2024-01-31T18:43:06.387Z,37.80
2024-01-31T18:46:09.458Z,35.00
2024-01-31T18:49:18.628Z,35.40
2024-01-31T18:52:22.201Z,38.60
2024-01-31T18:55:25.313Z,37.00
2024-01-31T18:58:29.208Z,37.00
2024-01-31T19:01:32.606Z,40.00
2024-01-31T19:04:37.066Z,38.00
2024-01-31T19:07:40.116Z,38.80
2024-01-31T19:10:43.333Z,38.75
2024-01-31T19:13:46.481Z,41.00
2024-01-31T19:16:51.733Z,38.00
2024-01-31T19:19:56.598Z,39.40
2024-01-31T19:22:59.721Z,39.00
2024-01-31T19:26:02.842Z,38.00
2024-01-31T19:29:05.975Z,41.00
2024-01-31T19:32:09.116Z,41.00
2024-01-31T19:35:13.668Z,41.80
2024-01-31T19:38:16.769Z,40.60
2024-01-31T19:41:20.182Z,41.00
2024-01-31T19:44:23.346Z,43.00
2024-01-31T19:47:26.743Z,41.75
2024-01-31T19:50:31.383Z,44.60
2024-01-31T19:53:34.552Z,45.00
2024-01-31T19:56:37.871Z,46.80
2024-01-31T19:59:42.050Z,48.00
2024-01-31T20:02:45.949Z,47.20
2024-01-31T20:05:50.595Z,46.80
2024-01-31T20:08:53.833Z,47.00
2024-01-31T20:11:56.978Z,47.00
2024-01-31T20:15:00.127Z,49.60
2024-01-31T20:18:03.363Z,50.60
2024-01-31T20:21:08.042Z,46.00
2024-01-31T20:24:11.308Z,46.50
2024-01-31T20:27:14.529Z,49.00
2024-01-31T20:30:22.207Z,46.20
2024-01-31T20:33:25.555Z,47.00
2024-01-31T20:36:30.050Z,49.00
2024-01-31T20:39:35.169Z,46.25
2024-01-31T20:42:38.393Z,46.50
2024-01-31T20:45:41.537Z,46.00
2024-01-31T20:48:45.784Z,45.40
2024-01-31T20:51:50.285Z,47.60
2024-01-31T20:54:53.628Z,44.80
2024-01-31T20:57:56.733Z,47.00
2024-01-31T21:00:59.844Z,49.00
2024-01-31T21:04:04.341Z,47.00
2024-01-31T21:07:08.865Z,47.00
2024-01-31T21:10:14.696Z,49.25
2024-01-31T21:13:19.510Z,48.80
2024-01-31T21:16:22.570Z,49.00
2024-01-31T21:19:25.730Z,47.00
2024-01-31T21:22:30.234Z,47.00
2024-01-31T21:25:33.290Z,46.40
2024-01-31T21:28:36.346Z,45.00
2024-01-31T21:31:39.426Z,45.00
2024-01-31T21:34:42.519Z,46.00
2024-01-31T21:37:47.681Z,49.00
2024-01-31T21:40:51.990Z,47.00
2024-01-31T21:43:56.008Z,46.80
2024-01-31T21:46:59.151Z,49.80
2024-01-31T21:50:02.307Z,49.20
2024-01-31T21:53:06.968Z,47.20
2024-01-31T21:56:10.228Z,47.00
2024-01-31T21:59:13.311Z,48.00
2024-01-31T22:02:16.578Z,48.60
2024-01-31T22:05:20.077Z,48.40
2024-01-31T22:08:24.886Z,49.00
2024-01-31T22:11:28.711Z,47.50
2024-01-31T22:14:32.680Z,50.00
2024-01-31T22:17:36.138Z,47.00
2024-01-31T22:20:39.533Z,51.00
2024-01-31T22:23:45.028Z,48.40
2024-01-31T22:26:48.316Z,50.00
2024-01-31T22:29:51.479Z,48.20
2024-01-31T22:32:54.817Z,49.25
2024-01-31T22:35:58.100Z,49.00
2024-01-31T22:39:02.724Z,47.00
2024-01-31T22:42:06.028Z,50.00
2024-01-31T22:45:11.267Z,47.00
2024-01-31T22:48:14.637Z,46.75
2024-01-31T22:51:17.767Z,51.00
2024-01-31T22:54:22.526Z,51.00
2024-01-31T22:57:25.594Z,52.40
2024-01-31T23:00:28.714Z,49.75
2024-01-31T23:03:31.825Z,51.40
2024-01-31T23:06:35.260Z,47.60
2024-01-31T23:09:39.823Z,50.00
2024-01-31T23:12:43.410Z,52.00
2024-01-31T23:15:47.103Z,50.50
2024-01-31T23:18:50.345Z,53.40
2024-01-31T23:21:53.586Z,51.00
2024-01-31T23:24:57.981Z,51.25
2024-01-31T23:28:01.107Z,50.25
2024-01-31T23:31:05.237Z,49.00
2024-01-31T23:34:08.532Z,49.75
2024-01-31T23:37:11.726Z,50.40
2024-01-31T23:40:16.522Z,49.00
2024-01-31T23:43:19.552Z,51.00
2024-01-31T23:46:23.081Z,53.25
2024-01-31T23:49:26.277Z,51.00
2024-01-31T23:52:29.386Z,52.00
2024-01-31T23:55:33.888Z,51.60
2024-01-31T23:58:37.133Z,49.75
